sensor_id;sensor_type;location;lat;lon;timestamp;P1;durP1;ratioP1;P2;durP2;ratioP2
57389;SDS011;43217;52.694;6.214;2024-02-15T00:02:07;32.22;;;18.73;;
57389;SDS011;43217;52.694;6.214;2024-02-15T00:04:33;33.97;;;19.50;;
57389;SDS011;43217;52.694;6.214;2024-02-15T00:06:59;32.33;;;19.52;;
57389;SDS011;43217;52.694;6.214;2024-02-15T00:09:25;31.20;;;18.08;;
57389;SDS011;43217;52.694;6.214;2024-02-15T00:11:51;33.05;;;19.10;;
57389;SDS011;43217;52.694;6.214;2024-02-15T00:14:16;35.20;;;19.80;;
57389;SDS011;43217;52.694;6.214;2024-02-15T00:16:43;40.35;;;20.13;;
57389;SDS011;43217;52.694;6.214;2024-02-15T00:19:10;39.30;;;21.00;;
57389;SDS011;43217;52.694;6.214;2024-02-15T00:21:36;39.63;;;20.50;;
57389;SDS011;43217;52.694;6.214;2024-02-15T00:24:01;38.20;;;21.85;;
57389;SDS011;43217;52.694;6.214;2024-02-15T00:26:27;38.67;;;20.40;;
57389;SDS011;43217;52.694;6.214;2024-02-15T00:28:53;44.13;;;22.60;;
57389;SDS011;43217;52.694;6.214;2024-02-15T00:31:18;43.22;;;22.33;;
57389;SDS011;43217;52.694;6.214;2024-02-15T00:33:44;47.28;;;23.38;;
57389;SDS011;43217;52.694;6.214;2024-02-15T00:36:10;49.00;;;23.55;;
57389;SDS011;43217;52.694;6.214;2024-02-15T00:38:36;49.50;;;24.27;;
57389;SDS011;43217;52.694;6.214;2024-02-15T00:41:04;50.67;;;22.63;;
57389;SDS011;43217;52.694;6.214;2024-02-15T00:43:31;49.83;;;24.08;;
57389;SDS011;43217;52.694;6.214;2024-02-15T00:46:00;48.00;;;24.60;;
57389;SDS011;43217;52.694;6.214;2024-02-15T00:48:26;57.88;;;25.08;;
57389;SDS011;43217;52.694;6.214;2024-02-15T00:53:19;51.20;;;25.75;;
57389;SDS011;43217;52.694;6.214;2024-02-15T00:55:45;51.15;;;25.40;;
57389;SDS011;43217;52.694;6.214;2024-02-15T00:58:11;53.50;;;25.35;;
57389;SDS011;43217;52.694;6.214;2024-02-15T01:00:37;47.22;;;25.10;;
57389;SDS011;43217;52.694;6.214;2024-02-15T01:03:03;50.72;;;24.05;;
57389;SDS011;43217;52.694;6.214;2024-02-15T01:05:29;51.45;;;24.35;;
57389;SDS011;43217;52.694;6.214;2024-02-15T01:07:55;45.03;;;23.95;;
57389;SDS011;43217;52.694;6.214;2024-02-15T01:10:21;46.50;;;23.75;;
57389;SDS011;43217;52.694;6.214;2024-02-15T01:12:48;44.83;;;22.15;;
57389;SDS011;43217;52.694;6.214;2024-02-15T01:15:14;41.88;;;21.88;;
57389;SDS011;43217;52.694;6.214;2024-02-15T01:17:43;42.03;;;21.17;;
57389;SDS011;43217;52.694;6.214;2024-02-15T01:20:09;38.55;;;21.08;;
57389;SDS011;43217;52.694;6.214;2024-02-15T01:22:35;38.65;;;21.25;;
57389;SDS011;43217;52.694;6.214;2024-02-15T01:25:01;40.70;;;21.20;;
57389;SDS011;43217;52.694;6.214;2024-02-15T01:27:27;37.03;;;19.88;;
57389;SDS011;43217;52.694;6.214;2024-02-15T01:29:55;37.13;;;20.40;;
57389;SDS011;43217;52.694;6.214;2024-02-15T01:32:22;34.75;;;18.52;;
57389;SDS011;43217;52.694;6.214;2024-02-15T01:34:47;37.08;;;19.27;;
57389;SDS011;43217;52.694;6.214;2024-02-15T01:37:16;36.35;;;18.63;;
57389;SDS011;43217;52.694;6.214;2024-02-15T01:39:42;39.55;;;18.95;;
57389;SDS011;43217;52.694;6.214;2024-02-15T01:42:07;39.53;;;19.60;;
57389;SDS011;43217;52.694;6.214;2024-02-15T01:44:33;45.13;;;19.92;;
57389;SDS011;43217;52.694;6.214;2024-02-15T01:47:01;40.67;;;20.33;;
57389;SDS011;43217;52.694;6.214;2024-02-15T01:51:55;42.75;;;20.80;;
57389;SDS011;43217;52.694;6.214;2024-02-15T01:54:22;45.08;;;20.83;;
57389;SDS011;43217;52.694;6.214;2024-02-15T01:56:48;47.78;;;22.08;;
57389;SDS011;43217;52.694;6.214;2024-02-15T01:59:17;42.65;;;20.85;;
57389;SDS011;43217;52.694;6.214;2024-02-15T02:01:44;43.20;;;20.00;;
57389;SDS011;43217;52.694;6.214;2024-02-15T02:04:10;48.78;;;20.48;;
57389;SDS011;43217;52.694;6.214;2024-02-15T02:06:39;42.75;;;20.13;;
57389;SDS011;43217;52.694;6.214;2024-02-15T02:09:05;37.13;;;18.50;;
57389;SDS011;43217;52.694;6.214;2024-02-15T02:11:35;40.92;;;16.98;;
57389;SDS011;43217;52.694;6.214;2024-02-15T02:14:01;43.00;;;16.85;;
57389;SDS011;43217;52.694;6.214;2024-02-15T02:16:27;34.47;;;17.20;;
57389;SDS011;43217;52.694;6.214;2024-02-15T02:18:57;36.53;;;17.52;;
57389;SDS011;43217;52.694;6.214;2024-02-15T02:21:27;39.47;;;17.90;;
57389;SDS011;43217;52.694;6.214;2024-02-15T02:23:55;41.78;;;18.73;;
57389;SDS011;43217;52.694;6.214;2024-02-15T02:26:22;38.45;;;19.15;;
57389;SDS011;43217;52.694;6.214;2024-02-15T02:28:49;36.90;;;20.00;;
57389;SDS011;43217;52.694;6.214;2024-02-15T02:31:15;43.10;;;20.88;;
57389;SDS011;43217;52.694;6.214;2024-02-15T02:33:47;39.95;;;21.52;;
57389;SDS011;43217;52.694;6.214;2024-02-15T02:36:17;47.17;;;21.65;;
57389;SDS011;43217;52.694;6.214;2024-02-15T02:38:43;46.80;;;21.75;;
57389;SDS011;43217;52.694;6.214;2024-02-15T02:41:10;45.47;;;24.42;;
57389;SDS011;43217;52.694;6.214;2024-02-15T02:43:42;45.75;;;22.50;;
57389;SDS011;43217;52.694;6.214;2024-02-15T02:46:11;53.58;;;25.33;;
57389;SDS011;43217;52.694;6.214;2024-02-15T02:48:37;46.72;;;23.83;;
57389;SDS011;43217;52.694;6.214;2024-02-15T02:51:03;43.58;;;22.92;;
57389;SDS011;43217;52.694;6.214;2024-02-15T02:53:29;40.22;;;21.65;;
57389;SDS011;43217;52.694;6.214;2024-02-15T02:55:58;40.75;;;22.30;;
57389;SDS011;43217;52.694;6.214;2024-02-15T02:58:24;39.72;;;23.17;;
57389;SDS011;43217;52.694;6.214;2024-02-15T03:00:50;41.58;;;22.33;;
57389;SDS011;43217;52.694;6.214;2024-02-15T03:03:16;46.60;;;22.70;;
57389;SDS011;43217;52.694;6.214;2024-02-15T03:05:44;40.55;;;21.10;;
57389;SDS011;43217;52.694;6.214;2024-02-15T03:08:13;37.42;;;21.48;;
57389;SDS011;43217;52.694;6.214;2024-02-15T03:10:39;43.00;;;20.98;;
57389;SDS011;43217;52.694;6.214;2024-02-15T03:13:05;36.20;;;20.98;;
57389;SDS011;43217;52.694;6.214;2024-02-15T03:15:33;38.13;;;21.52;;
57389;SDS011;43217;52.694;6.214;2024-02-15T03:17:59;47.97;;;23.45;;
57389;SDS011;43217;52.694;6.214;2024-02-15T03:20:25;39.67;;;22.25;;
57389;SDS011;43217;52.694;6.214;2024-02-15T03:22:54;33.70;;;20.85;;
57389;SDS011;43217;52.694;6.214;2024-02-15T03:25:23;38.50;;;21.60;;
57389;SDS011;43217;52.694;6.214;2024-02-15T03:27:50;41.00;;;23.33;;
57389;SDS011;43217;52.694;6.214;2024-02-15T03:30:20;36.15;;;23.15;;
57389;SDS011;43217;52.694;6.214;2024-02-15T03:32:47;37.95;;;23.23;;
57389;SDS011;43217;52.694;6.214;2024-02-15T03:35:16;41.38;;;22.30;;
57389;SDS011;43217;52.694;6.214;2024-02-15T03:37:43;40.38;;;23.25;;
57389;SDS011;43217;52.694;6.214;2024-02-15T03:40:09;39.20;;;24.20;;
57389;SDS011;43217;52.694;6.214;2024-02-15T03:42:35;43.92;;;24.33;;
57389;SDS011;43217;52.694;6.214;2024-02-15T03:45:04;42.08;;;24.13;;
57389;SDS011;43217;52.694;6.214;2024-02-15T03:47:34;50.25;;;25.92;;
57389;SDS011;43217;52.694;6.214;2024-02-15T03:50:06;46.88;;;26.75;;
57389;SDS011;43217;52.694;6.214;2024-02-15T03:52:34;45.60;;;27.35;;
57389;SDS011;43217;52.694;6.214;2024-02-15T03:55:01;45.05;;;27.52;;
57389;SDS011;43217;52.694;6.214;2024-02-15T03:57:30;45.30;;;26.73;;
57389;SDS011;43217;52.694;6.214;2024-02-15T03:59:56;49.70;;;28.42;;
57389;SDS011;43217;52.694;6.214;2024-02-15T04:02:25;52.03;;;28.00;;
57389;SDS011;43217;52.694;6.214;2024-02-15T04:04:51;43.63;;;26.20;;
57389;SDS011;43217;52.694;6.214;2024-02-15T04:07:20;50.00;;;27.98;;
57389;SDS011;43217;52.694;6.214;2024-02-15T04:09:47;44.90;;;26.83;;
57389;SDS011;43217;52.694;6.214;2024-02-15T04:12:13;53.53;;;29.38;;
57389;SDS011;43217;52.694;6.214;2024-02-15T04:14:39;51.35;;;28.45;;
57389;SDS011;43217;52.694;6.214;2024-02-15T04:17:05;50.53;;;28.88;;
57389;SDS011;43217;52.694;6.214;2024-02-15T04:19:32;53.10;;;29.63;;
57389;SDS011;43217;52.694;6.214;2024-02-15T04:21:58;49.97;;;29.95;;
57389;SDS011;43217;52.694;6.214;2024-02-15T04:24:26;52.55;;;29.88;;
57389;SDS011;43217;52.694;6.214;2024-02-15T04:26:51;46.67;;;28.88;;
57389;SDS011;43217;52.694;6.214;2024-02-15T04:29:17;50.88;;;29.48;;
57389;SDS011;43217;52.694;6.214;2024-02-15T04:31:45;56.80;;;30.42;;
57389;SDS011;43217;52.694;6.214;2024-02-15T04:34:14;53.70;;;30.20;;
57389;SDS011;43217;52.694;6.214;2024-02-15T04:36:47;54.58;;;31.30;;
57389;SDS011;43217;52.694;6.214;2024-02-15T04:39:20;54.22;;;31.30;;
57389;SDS011;43217;52.694;6.214;2024-02-15T04:41:52;52.60;;;32.33;;
57389;SDS011;43217;52.694;6.214;2024-02-15T04:44:18;52.45;;;31.95;;
57389;SDS011;43217;52.694;6.214;2024-02-15T04:46:51;51.78;;;31.80;;
57389;SDS011;43217;52.694;6.214;2024-02-15T04:49:17;52.35;;;33.03;;
57389;SDS011;43217;52.694;6.214;2024-02-15T04:51:44;55.28;;;32.10;;
57389;SDS011;43217;52.694;6.214;2024-02-15T04:54:10;54.53;;;33.70;;
57389;SDS011;43217;52.694;6.214;2024-02-15T04:56:39;52.00;;;32.60;;
57389;SDS011;43217;52.694;6.214;2024-02-15T04:59:08;50.88;;;32.63;;
57389;SDS011;43217;52.694;6.214;2024-02-15T05:01:37;48.58;;;33.67;;
57389;SDS011;43217;52.694;6.214;2024-02-15T05:04:02;47.78;;;33.95;;
57389;SDS011;43217;52.694;6.214;2024-02-15T05:06:32;52.10;;;33.28;;
57389;SDS011;43217;52.694;6.214;2024-02-15T05:08:58;52.08;;;34.38;;
57389;SDS011;43217;52.694;6.214;2024-02-15T05:11:25;50.55;;;34.22;;
57389;SDS011;43217;52.694;6.214;2024-02-15T05:13:51;51.45;;;33.03;;
57389;SDS011;43217;52.694;6.214;2024-02-15T05:16:17;56.47;;;35.15;;
57389;SDS011;43217;52.694;6.214;2024-02-15T05:18:43;60.00;;;35.13;;
57389;SDS011;43217;52.694;6.214;2024-02-15T05:21:10;54.80;;;34.42;;
57389;SDS011;43217;52.694;6.214;2024-02-15T05:23:36;56.83;;;35.08;;
57389;SDS011;43217;52.694;6.214;2024-02-15T05:26:04;51.70;;;33.60;;
57389;SDS011;43217;52.694;6.214;2024-02-15T05:28:30;51.78;;;34.38;;
57389;SDS011;43217;52.694;6.214;2024-02-15T05:31:09;50.53;;;34.35;;
57389;SDS011;43217;52.694;6.214;2024-02-15T05:33:52;51.88;;;33.95;;
57389;SDS011;43217;52.694;6.214;2024-02-15T05:36:19;58.80;;;32.70;;
57389;SDS011;43217;52.694;6.214;2024-02-15T05:38:49;48.90;;;31.40;;
57389;SDS011;43217;52.694;6.214;2024-02-15T05:41:16;52.55;;;32.67;;
57389;SDS011;43217;52.694;6.214;2024-02-15T05:43:42;45.67;;;31.13;;
57389;SDS011;43217;52.694;6.214;2024-02-15T05:46:08;47.05;;;30.73;;
57389;SDS011;43217;52.694;6.214;2024-02-15T05:48:35;51.33;;;31.20;;
57389;SDS011;43217;52.694;6.214;2024-02-15T05:51:05;43.97;;;29.33;;
57389;SDS011;43217;52.694;6.214;2024-02-15T05:53:32;45.75;;;29.95;;
57389;SDS011;43217;52.694;6.214;2024-02-15T05:56:07;38.03;;;26.90;;
57389;SDS011;43217;52.694;6.214;2024-02-15T05:58:34;44.13;;;28.73;;
57389;SDS011;43217;52.694;6.214;2024-02-15T06:01:03;42.73;;;26.67;;
57389;SDS011;43217;52.694;6.214;2024-02-15T06:03:37;40.25;;;26.95;;
57389;SDS011;43217;52.694;6.214;2024-02-15T06:06:05;36.92;;;25.73;;
57389;SDS011;43217;52.694;6.214;2024-02-15T06:08:35;33.65;;;25.20;;
57389;SDS011;43217;52.694;6.214;2024-02-15T06:11:02;37.65;;;24.70;;
57389;SDS011;43217;52.694;6.214;2024-02-15T06:13:28;35.17;;;24.90;;
57389;SDS011;43217;52.694;6.214;2024-02-15T06:15:54;36.55;;;24.90;;
57389;SDS011;43217;52.694;6.214;2024-02-15T06:18:29;36.13;;;23.98;;
57389;SDS011;43217;52.694;6.214;2024-02-15T06:20:58;28.88;;;22.67;;
57389;SDS011;43217;52.694;6.214;2024-02-15T06:23:27;32.42;;;23.45;;
57389;SDS011;43217;52.694;6.214;2024-02-15T06:25:54;32.00;;;23.65;;
57389;SDS011;43217;52.694;6.214;2024-02-15T06:28:26;34.22;;;23.52;;
57389;SDS011;43217;52.694;6.214;2024-02-15T06:31:11;33.58;;;23.95;;
57389;SDS011;43217;52.694;6.214;2024-02-15T06:33:55;31.48;;;22.27;;
57389;SDS011;43217;52.694;6.214;2024-02-15T06:36:45;31.77;;;21.92;;
57389;SDS011;43217;52.694;6.214;2024-02-15T06:39:30;33.67;;;22.90;;
57389;SDS011;43217;52.694;6.214;2024-02-15T06:42:15;33.28;;;23.15;;
57389;SDS011;43217;52.694;6.214;2024-02-15T06:44:43;35.63;;;22.55;;
57389;SDS011;43217;52.694;6.214;2024-02-15T06:47:09;34.72;;;22.83;;
57389;SDS011;43217;52.694;6.214;2024-02-15T06:49:36;39.90;;;23.38;;
57389;SDS011;43217;52.694;6.214;2024-02-15T06:52:08;32.83;;;22.15;;
57389;SDS011;43217;52.694;6.214;2024-02-15T06:54:36;34.15;;;22.17;;
57389;SDS011;43217;52.694;6.214;2024-02-15T06:57:05;32.88;;;21.65;;
57389;SDS011;43217;52.694;6.214;2024-02-15T06:59:32;34.25;;;21.80;;
57389;SDS011;43217;52.694;6.214;2024-02-15T07:01:59;34.47;;;21.70;;
57389;SDS011;43217;52.694;6.214;2024-02-15T07:04:25;36.65;;;23.52;;
57389;SDS011;43217;52.694;6.214;2024-02-15T07:06:51;34.22;;;21.58;;
57389;SDS011;43217;52.694;6.214;2024-02-15T07:09:19;33.30;;;23.38;;
57389;SDS011;43217;52.694;6.214;2024-02-15T07:11:46;33.40;;;22.47;;
57389;SDS011;43217;52.694;6.214;2024-02-15T07:14:12;32.10;;;21.23;;
57389;SDS011;43217;52.694;6.214;2024-02-15T07:16:38;37.03;;;24.15;;
57389;SDS011;43217;52.694;6.214;2024-02-15T07:19:04;38.63;;;22.80;;
57389;SDS011;43217;52.694;6.214;2024-02-15T07:21:34;32.13;;;22.02;;
57389;SDS011;43217;52.694;6.214;2024-02-15T07:23:59;32.75;;;23.70;;
57389;SDS011;43217;52.694;6.214;2024-02-15T07:26:25;38.75;;;22.92;;
57389;SDS011;43217;52.694;6.214;2024-02-15T07:28:51;40.33;;;23.77;;
57389;SDS011;43217;52.694;6.214;2024-02-15T07:31:18;31.88;;;23.05;;
57389;SDS011;43217;52.694;6.214;2024-02-15T07:33:48;37.92;;;22.90;;
57389;SDS011;43217;52.694;6.214;2024-02-15T07:36:22;32.78;;;21.35;;
57389;SDS011;43217;52.694;6.214;2024-02-15T07:38:48;41.03;;;23.98;;
57389;SDS011;43217;52.694;6.214;2024-02-15T07:41:18;34.08;;;23.42;;
57389;SDS011;43217;52.694;6.214;2024-02-15T07:43:47;34.50;;;22.13;;
57389;SDS011;43217;52.694;6.214;2024-02-15T07:46:16;33.15;;;22.48;;
57389;SDS011;43217;52.694;6.214;2024-02-15T07:48:44;36.42;;;23.40;;
57389;SDS011;43217;52.694;6.214;2024-02-15T07:51:14;37.88;;;22.75;;
57389;SDS011;43217;52.694;6.214;2024-02-15T07:53:41;29.67;;;21.65;;
57389;SDS011;43217;52.694;6.214;2024-02-15T07:56:10;32.30;;;22.35;;
57389;SDS011;43217;52.694;6.214;2024-02-15T07:58:42;36.40;;;22.67;;
57389;SDS011;43217;52.694;6.214;2024-02-15T08:01:15;31.98;;;21.08;;
57389;SDS011;43217;52.694;6.214;2024-02-15T08:03:41;33.72;;;22.33;;
57389;SDS011;43217;52.694;6.214;2024-02-15T08:06:12;31.77;;;21.75;;
57389;SDS011;43217;52.694;6.214;2024-02-15T08:08:40;30.35;;;21.17;;
57389;SDS011;43217;52.694;6.214;2024-02-15T08:11:11;25.95;;;19.98;;
57389;SDS011;43217;52.694;6.214;2024-02-15T08:13:41;27.75;;;20.58;;
57389;SDS011;43217;52.694;6.214;2024-02-15T08:16:19;32.25;;;22.70;;
57389;SDS011;43217;52.694;6.214;2024-02-15T08:18:49;33.70;;;21.23;;
57389;SDS011;43217;52.694;6.214;2024-02-15T08:21:24;29.65;;;21.63;;
57389;SDS011;43217;52.694;6.214;2024-02-15T08:23:51;30.98;;;21.35;;
57389;SDS011;43217;52.694;6.214;2024-02-15T08:26:17;30.65;;;21.35;;
57389;SDS011;43217;52.694;6.214;2024-02-15T08:28:42;32.28;;;21.83;;
57389;SDS011;43217;52.694;6.214;2024-02-15T08:31:08;33.40;;;21.92;;
57389;SDS011;43217;52.694;6.214;2024-02-15T08:33:34;35.58;;;21.70;;
57389;SDS011;43217;52.694;6.214;2024-02-15T08:36:01;35.13;;;21.50;;
57389;SDS011;43217;52.694;6.214;2024-02-15T08:38:27;33.65;;;21.75;;
57389;SDS011;43217;52.694;6.214;2024-02-15T08:40:53;29.25;;;20.30;;
57389;SDS011;43217;52.694;6.214;2024-02-15T08:43:18;27.35;;;19.77;;
57389;SDS011;43217;52.694;6.214;2024-02-15T08:45:44;32.33;;;20.83;;
57389;SDS011;43217;52.694;6.214;2024-02-15T08:48:10;35.00;;;20.77;;
57389;SDS011;43217;52.694;6.214;2024-02-15T08:50:36;30.60;;;21.08;;
57389;SDS011;43217;52.694;6.214;2024-02-15T08:53:01;38.67;;;22.17;;
57389;SDS011;43217;52.694;6.214;2024-02-15T08:55:31;33.40;;;21.48;;
57389;SDS011;43217;52.694;6.214;2024-02-15T08:58:00;34.85;;;21.48;;
57389;SDS011;43217;52.694;6.214;2024-02-15T09:00:27;32.83;;;21.35;;
57389;SDS011;43217;52.694;6.214;2024-02-15T09:02:53;33.75;;;21.83;;
57389;SDS011;43217;52.694;6.214;2024-02-15T09:05:18;35.25;;;22.05;;
57389;SDS011;43217;52.694;6.214;2024-02-15T09:07:47;34.10;;;22.20;;
57389;SDS011;43217;52.694;6.214;2024-02-15T09:10:13;33.13;;;21.58;;
57389;SDS011;43217;52.694;6.214;2024-02-15T09:12:42;32.92;;;21.58;;
57389;SDS011;43217;52.694;6.214;2024-02-15T09:15:09;33.05;;;21.75;;
57389;SDS011;43217;52.694;6.214;2024-02-15T09:17:42;35.30;;;23.00;;
57389;SDS011;43217;52.694;6.214;2024-02-15T09:20:09;34.53;;;22.20;;
57389;SDS011;43217;52.694;6.214;2024-02-15T09:22:52;29.50;;;21.10;;
57389;SDS011;43217;52.694;6.214;2024-02-15T09:25:19;31.35;;;22.30;;
57389;SDS011;43217;52.694;6.214;2024-02-15T09:27:48;36.97;;;22.80;;
57389;SDS011;43217;52.694;6.214;2024-02-15T09:30:15;31.88;;;21.40;;
57389;SDS011;43217;52.694;6.214;2024-02-15T09:32:42;35.33;;;22.33;;
57389;SDS011;43217;52.694;6.214;2024-02-15T09:35:08;32.20;;;22.20;;
57389;SDS011;43217;52.694;6.214;2024-02-15T09:37:37;33.53;;;22.08;;
57389;SDS011;43217;52.694;6.214;2024-02-15T09:40:07;31.13;;;20.23;;
57389;SDS011;43217;52.694;6.214;2024-02-15T09:42:35;27.20;;;18.30;;
57389;SDS011;43217;52.694;6.214;2024-02-15T09:45:04;26.10;;;20.23;;
57389;SDS011;43217;52.694;6.214;2024-02-15T09:47:36;29.58;;;18.85;;
57389;SDS011;43217;52.694;6.214;2024-02-15T09:50:09;26.60;;;18.52;;
57389;SDS011;43217;52.694;6.214;2024-02-15T09:55:11;24.35;;;17.38;;
57389;SDS011;43217;52.694;6.214;2024-02-15T09:57:45;22.58;;;16.55;;
57389;SDS011;43217;52.694;6.214;2024-02-15T10:00:11;22.75;;;15.25;;
57389;SDS011;43217;52.694;6.214;2024-02-15T10:02:48;18.90;;;14.73;;
57389;SDS011;43217;52.694;6.214;2024-02-15T10:05:17;18.92;;;14.43;;
57389;SDS011;43217;52.694;6.214;2024-02-15T10:07:48;16.30;;;13.35;;
57389;SDS011;43217;52.694;6.214;2024-02-15T10:12:50;17.50;;;13.00;;
57389;SDS011;43217;52.694;6.214;2024-02-15T10:15:32;13.60;;;10.98;;
57389;SDS011;43217;52.694;6.214;2024-02-15T10:18:02;15.15;;;11.35;;
57389;SDS011;43217;52.694;6.214;2024-02-15T10:20:33;14.10;;;12.00;;
57389;SDS011;43217;52.694;6.214;2024-02-15T10:25:42;12.57;;;10.65;;
57389;SDS011;43217;52.694;6.214;2024-02-15T10:28:08;12.60;;;11.10;;
57389;SDS011;43217;52.694;6.214;2024-02-15T10:30:41;14.43;;;11.70;;
57389;SDS011;43217;52.694;6.214;2024-02-15T10:33:09;16.77;;;12.27;;
57389;SDS011;43217;52.694;6.214;2024-02-15T10:35:35;15.00;;;13.30;;
57389;SDS011;43217;52.694;6.214;2024-02-15T10:38:10;15.43;;;13.05;;
57389;SDS011;43217;52.694;6.214;2024-02-15T10:40:38;17.70;;;13.30;;
57389;SDS011;43217;52.694;6.214;2024-02-15T10:43:08;17.25;;;14.30;;
57389;SDS011;43217;52.694;6.214;2024-02-15T10:45:38;14.32;;;12.65;;
57389;SDS011;43217;52.694;6.214;2024-02-15T10:48:05;17.33;;;13.73;;
57389;SDS011;43217;52.694;6.214;2024-02-15T10:50:33;16.55;;;13.50;;
57389;SDS011;43217;52.694;6.214;2024-02-15T10:52:58;14.60;;;12.75;;
57389;SDS011;43217;52.694;6.214;2024-02-15T10:58:01;17.23;;;13.55;;
57389;SDS011;43217;52.694;6.214;2024-02-15T11:00:30;18.27;;;13.02;;
57389;SDS011;43217;52.694;6.214;2024-02-15T11:03:02;15.38;;;12.10;;
57389;SDS011;43217;52.694;6.214;2024-02-15T11:05:33;13.65;;;11.85;;
57389;SDS011;43217;52.694;6.214;2024-02-15T11:08:04;15.02;;;12.63;;
57389;SDS011;43217;52.694;6.214;2024-02-15T11:10:31;16.33;;;12.32;;
57389;SDS011;43217;52.694;6.214;2024-02-15T11:12:58;14.55;;;11.77;;
57389;SDS011;43217;52.694;6.214;2024-02-15T11:15:44;12.95;;;10.98;;
57389;SDS011;43217;52.694;6.214;2024-02-15T11:18:11;17.37;;;11.60;;
57389;SDS011;43217;52.694;6.214;2024-02-15T11:23:03;11.27;;;10.15;;
57389;SDS011;43217;52.694;6.214;2024-02-15T11:25:33;13.13;;;11.38;;
57389;SDS011;43217;52.694;6.214;2024-02-15T11:30:50;13.98;;;11.27;;
57389;SDS011;43217;52.694;6.214;2024-02-15T11:36:03;12.95;;;11.48;;
57389;SDS011;43217;52.694;6.214;2024-02-15T11:38:37;12.00;;;10.38;;
57389;SDS011;43217;52.694;6.214;2024-02-15T11:41:07;16.27;;;11.57;;
57389;SDS011;43217;52.694;6.214;2024-02-15T11:46:13;12.77;;;11.25;;
57389;SDS011;43217;52.694;6.214;2024-02-15T11:48:39;15.18;;;11.95;;
57389;SDS011;43217;52.694;6.214;2024-02-15T11:51:05;14.60;;;11.98;;
57389;SDS011;43217;52.694;6.214;2024-02-15T11:53:36;16.30;;;11.82;;
57389;SDS011;43217;52.694;6.214;2024-02-15T11:56:02;14.00;;;11.95;;
57389;SDS011;43217;52.694;6.214;2024-02-15T11:58:30;16.77;;;13.20;;
57389;SDS011;43217;52.694;6.214;2024-02-15T12:01:17;15.85;;;12.10;;
57389;SDS011;43217;52.694;6.214;2024-02-15T12:04:01;14.43;;;12.23;;
57389;SDS011;43217;52.694;6.214;2024-02-15T12:06:46;13.73;;;12.00;;
57389;SDS011;43217;52.694;6.214;2024-02-15T12:09:30;14.98;;;13.40;;
57389;SDS011;43217;52.694;6.214;2024-02-15T12:12:14;15.02;;;12.35;;
57389;SDS011;43217;52.694;6.214;2024-02-15T12:15:02;15.85;;;13.45;;
57389;SDS011;43217;52.694;6.214;2024-02-15T12:18:13;13.98;;;12.30;;
57389;SDS011;43217;52.694;6.214;2024-02-15T12:21:01;13.20;;;11.88;;
57389;SDS011;43217;52.694;6.214;2024-02-15T12:23:28;15.97;;;13.03;;
57389;SDS011;43217;52.694;6.214;2024-02-15T12:25:57;14.50;;;13.05;;
57389;SDS011;43217;52.694;6.214;2024-02-15T12:28:23;15.10;;;13.30;;
57389;SDS011;43217;52.694;6.214;2024-02-15T12:30:53;18.45;;;14.32;;
57389;SDS011;43217;52.694;6.214;2024-02-15T12:33:24;16.48;;;13.70;;
57389;SDS011;43217;52.694;6.214;2024-02-15T12:35:49;19.48;;;14.50;;
57389;SDS011;43217;52.694;6.214;2024-02-15T12:38:16;16.67;;;14.38;;
57389;SDS011;43217;52.694;6.214;2024-02-15T12:40:42;18.00;;;14.27;;
57389;SDS011;43217;52.694;6.214;2024-02-15T12:43:11;17.52;;;14.52;;
57389;SDS011;43217;52.694;6.214;2024-02-15T12:45:38;19.92;;;14.63;;
57389;SDS011;43217;52.694;6.214;2024-02-15T12:50:31;18.20;;;14.88;;
57389;SDS011;43217;52.694;6.214;2024-02-15T12:52:57;16.55;;;13.95;;
57389;SDS011;43217;52.694;6.214;2024-02-15T12:55:29;16.60;;;14.88;;
57389;SDS011;43217;52.694;6.214;2024-02-15T12:58:05;18.75;;;15.23;;
57389;SDS011;43217;52.694;6.214;2024-02-15T13:00:38;20.67;;;15.60;;
57389;SDS011;43217;52.694;6.214;2024-02-15T13:03:06;18.08;;;15.23;;
57389;SDS011;43217;52.694;6.214;2024-02-15T13:05:36;19.42;;;15.52;;
57389;SDS011;43217;52.694;6.214;2024-02-15T13:08:02;21.42;;;16.02;;
57389;SDS011;43217;52.694;6.214;2024-02-15T13:10:31;18.67;;;14.93;;
57389;SDS011;43217;52.694;6.214;2024-02-15T13:12:57;18.75;;;16.15;;
57389;SDS011;43217;52.694;6.214;2024-02-15T13:15:23;22.52;;;16.20;;
57389;SDS011;43217;52.694;6.214;2024-02-15T13:17:57;19.08;;;16.75;;
57389;SDS011;43217;52.694;6.214;2024-02-15T13:20:23;20.55;;;15.85;;
57389;SDS011;43217;52.694;6.214;2024-02-15T13:22:59;23.75;;;16.95;;
57389;SDS011;43217;52.694;6.214;2024-02-15T13:25:28;21.98;;;16.90;;
57389;SDS011;43217;52.694;6.214;2024-02-15T13:27:55;17.75;;;15.85;;
57389;SDS011;43217;52.694;6.214;2024-02-15T13:30:21;23.85;;;18.83;;
57389;SDS011;43217;52.694;6.214;2024-02-15T13:32:51;23.83;;;18.55;;
57389;SDS011;43217;52.694;6.214;2024-02-15T13:35:18;22.80;;;17.60;;
57389;SDS011;43217;52.694;6.214;2024-02-15T13:37:48;22.27;;;17.80;;
57389;SDS011;43217;52.694;6.214;2024-02-15T13:40:14;24.15;;;17.08;;
57389;SDS011;43217;52.694;6.214;2024-02-15T13:42:43;23.58;;;18.15;;
57389;SDS011;43217;52.694;6.214;2024-02-15T13:47:48;25.38;;;17.60;;
57389;SDS011;43217;52.694;6.214;2024-02-15T13:50:15;25.17;;;21.00;;
57389;SDS011;43217;52.694;6.214;2024-02-15T13:52:42;24.10;;;19.75;;
57389;SDS011;43217;52.694;6.214;2024-02-15T13:55:12;26.57;;;19.80;;
57389;SDS011;43217;52.694;6.214;2024-02-15T13:57:40;26.02;;;20.30;;
57389;SDS011;43217;52.694;6.214;2024-02-15T14:00:07;24.10;;;18.55;;
57389;SDS011;43217;52.694;6.214;2024-02-15T14:02:46;22.73;;;18.77;;
57389;SDS011;43217;52.694;6.214;2024-02-15T14:05:13;22.20;;;18.70;;
57389;SDS011;43217;52.694;6.214;2024-02-15T14:07:39;26.05;;;18.48;;
57389;SDS011;43217;52.694;6.214;2024-02-15T14:10:05;26.65;;;19.90;;
57389;SDS011;43217;52.694;6.214;2024-02-15T14:12:32;23.77;;;17.92;;
57389;SDS011;43217;52.694;6.214;2024-02-15T14:14:58;23.00;;;20.55;;
57389;SDS011;43217;52.694;6.214;2024-02-15T14:17:24;24.40;;;18.10;;
57389;SDS011;43217;52.694;6.214;2024-02-15T14:19:49;22.17;;;18.45;;
57389;SDS011;43217;52.694;6.214;2024-02-15T14:22:15;20.50;;;17.15;;
57389;SDS011;43217;52.694;6.214;2024-02-15T14:24:41;21.65;;;18.52;;
57389;SDS011;43217;52.694;6.214;2024-02-15T14:29:35;21.00;;;16.90;;
57389;SDS011;43217;52.694;6.214;2024-02-15T14:34:48;21.00;;;17.15;;
57389;SDS011;43217;52.694;6.214;2024-02-15T14:37:14;18.55;;;16.27;;
57389;SDS011;43217;52.694;6.214;2024-02-15T14:39:42;20.38;;;15.82;;
57389;SDS011;43217;52.694;6.214;2024-02-15T14:42:08;17.17;;;15.30;;
57389;SDS011;43217;52.694;6.214;2024-02-15T14:44:33;22.23;;;15.25;;
57389;SDS011;43217;52.694;6.214;2024-02-15T14:46:59;16.80;;;13.95;;
57389;SDS011;43217;52.694;6.214;2024-02-15T14:49:25;17.90;;;13.82;;
57389;SDS011;43217;52.694;6.214;2024-02-15T14:51:50;18.13;;;13.40;;
57389;SDS011;43217;52.694;6.214;2024-02-15T14:54:16;18.42;;;14.23;;
57389;SDS011;43217;52.694;6.214;2024-02-15T14:56:44;20.65;;;13.90;;
57389;SDS011;43217;52.694;6.214;2024-02-15T14:59:10;14.88;;;12.88;;
57389;SDS011;43217;52.694;6.214;2024-02-15T15:01:36;17.08;;;12.85;;
57389;SDS011;43217;52.694;6.214;2024-02-15T15:04:02;17.92;;;15.07;;
57389;SDS011;43217;52.694;6.214;2024-02-15T15:06:31;19.65;;;16.20;;